sensor_id;sensor_type;location;lat;lon;timestamp;P1;durP1;ratioP1;P2;durP2;ratioP2
12112;SDS011;6120;52.250;8.478;2022-10-16T00:00:20;2.97;;;1.95;;
12112;SDS011;6120;52.250;8.478;2022-10-16T00:02:47;2.85;;;1.90;;
12112;SDS011;6120;52.250;8.478;2022-10-16T00:05:13;5.38;;;2.20;;
12112;SDS011;6120;52.250;8.478;2022-10-16T00:07:40;4.95;;;2.38;;
12112;SDS011;6120;52.250;8.478;2022-10-16T00:10:07;5.07;;;2.10;;
12112;SDS011;6120;52.250;8.478;2022-10-16T00:12:34;4.07;;;2.40;;
12112;SDS011;6120;52.250;8.478;2022-10-16T00:15:00;5.32;;;2.72;;
12112;SDS011;6120;52.250;8.478;2022-10-16T00:17:27;3.50;;;2.10;;
12112;SDS011;6120;52.250;8.478;2022-10-16T00:19:53;6.07;;;2.45;;
12112;SDS011;6120;52.250;8.478;2022-10-16T00:22:20;4.95;;;2.42;;
12112;SDS011;6120;52.250;8.478;2022-10-16T00:24:46;4.53;;;2.92;;
12112;SDS011;6120;52.250;8.478;2022-10-16T00:27:13;5.50;;;3.08;;
12112;SDS011;6120;52.250;8.478;2022-10-16T00:29:40;4.47;;;2.63;;
12112;SDS011;6120;52.250;8.478;2022-10-16T00:32:06;4.30;;;2.90;;
12112;SDS011;6120;52.250;8.478;2022-10-16T00:34:33;4.05;;;2.55;;
12112;SDS011;6120;52.250;8.478;2022-10-16T00:36:59;4.25;;;2.80;;
12112;SDS011;6120;52.250;8.478;2022-10-16T00:39:26;7.50;;;2.95;;
12112;SDS011;6120;52.250;8.478;2022-10-16T00:41:53;5.78;;;3.05;;
12112;SDS011;6120;52.250;8.478;2022-10-16T00:47:24;5.82;;;3.47;;
12112;SDS011;6120;52.250;8.478;2022-10-16T00:49:58;5.72;;;3.67;;
12112;SDS011;6120;52.250;8.478;2022-10-16T00:52:29;4.82;;;3.00;;
12112;SDS011;6120;52.250;8.478;2022-10-16T00:54:56;6.15;;;3.45;;
12112;SDS011;6120;52.250;8.478;2022-10-16T00:57:23;9.20;;;4.15;;
12112;SDS011;6120;52.250;8.478;2022-10-16T00:59:50;5.43;;;3.17;;
12112;SDS011;6120;52.250;8.478;2022-10-16T01:02:16;8.57;;;4.32;;
12112;SDS011;6120;52.250;8.478;2022-10-16T01:04:47;7.00;;;4.05;;
12112;SDS011;6120;52.250;8.478;2022-10-16T01:17:48;8.00;;;4.05;;
12112;SDS011;6120;52.250;8.478;2022-10-16T01:20:24;5.07;;;3.50;;
12112;SDS011;6120;52.250;8.478;2022-10-16T01:25:55;4.68;;;3.33;;
12112;SDS011;6120;52.250;8.478;2022-10-16T01:28:34;5.60;;;3.80;;
12112;SDS011;6120;52.250;8.478;2022-10-16T01:31:05;7.63;;;4.03;;
12112;SDS011;6120;52.250;8.478;2022-10-16T01:33:34;6.32;;;3.60;;
12112;SDS011;6120;52.250;8.478;2022-10-16T01:36:07;6.07;;;3.95;;
12112;SDS011;6120;52.250;8.478;2022-10-16T01:38:37;5.60;;;3.78;;
12112;SDS011;6120;52.250;8.478;2022-10-16T01:41:09;10.80;;;4.85;;
12112;SDS011;6120;52.250;8.478;2022-10-16T01:43:40;5.93;;;4.15;;
12112;SDS011;6120;52.250;8.478;2022-10-16T01:46:10;7.57;;;4.60;;
12112;SDS011;6120;52.250;8.478;2022-10-16T01:48:37;10.45;;;4.15;;
12112;SDS011;6120;52.250;8.478;2022-10-16T01:51:09;6.25;;;4.00;;
12112;SDS011;6120;52.250;8.478;2022-10-16T01:53:37;8.00;;;4.47;;
12112;SDS011;6120;52.250;8.478;2022-10-16T01:56:09;7.22;;;4.43;;
12112;SDS011;6120;52.250;8.478;2022-10-16T01:58:37;9.70;;;4.55;;
12112;SDS011;6120;52.250;8.478;2022-10-16T02:01:07;10.70;;;4.82;;
12112;SDS011;6120;52.250;8.478;2022-10-16T02:03:36;5.35;;;4.07;;
12112;SDS011;6120;52.250;8.478;2022-10-16T02:06:04;8.23;;;4.75;;
12112;SDS011;6120;52.250;8.478;2022-10-16T02:08:30;7.68;;;4.68;;
12112;SDS011;6120;52.250;8.478;2022-10-16T02:10:57;7.45;;;4.45;;
12112;SDS011;6120;52.250;8.478;2022-10-16T02:13:33;7.80;;;4.28;;
12112;SDS011;6120;52.250;8.478;2022-10-16T02:16:04;8.55;;;4.65;;
12112;SDS011;6120;52.250;8.478;2022-10-16T02:18:31;6.45;;;4.05;;
12112;SDS011;6120;52.250;8.478;2022-10-16T02:21:10;6.85;;;4.32;;
12112;SDS011;6120;52.250;8.478;2022-10-16T02:26:26;8.02;;;4.35;;
12112;SDS011;6120;52.250;8.478;2022-10-16T02:29:00;8.43;;;4.10;;
12112;SDS011;6120;52.250;8.478;2022-10-16T02:31:31;9.68;;;4.72;;
12112;SDS011;6120;52.250;8.478;2022-10-16T02:34:00;6.25;;;3.60;;
12112;SDS011;6120;52.250;8.478;2022-10-16T02:36:29;7.40;;;4.45;;
12112;SDS011;6120;52.250;8.478;2022-10-16T02:38:55;9.25;;;4.78;;
12112;SDS011;6120;52.250;8.478;2022-10-16T02:41:22;7.70;;;4.50;;
12112;SDS011;6120;52.250;8.478;2022-10-16T02:43:50;9.57;;;5.32;;
12112;SDS011;6120;52.250;8.478;2022-10-16T02:46:16;8.20;;;4.65;;
12112;SDS011;6120;52.250;8.478;2022-10-16T02:48:43;7.13;;;4.18;;
12112;SDS011;6120;52.250;8.478;2022-10-16T02:51:10;6.97;;;3.97;;
12112;SDS011;6120;52.250;8.478;2022-10-16T02:53:37;7.85;;;4.30;;
12112;SDS011;6120;52.250;8.478;2022-10-16T02:56:04;9.38;;;4.78;;
12112;SDS011;6120;52.250;8.478;2022-10-16T02:58:30;6.95;;;4.10;;
12112;SDS011;6120;52.250;8.478;2022-10-16T03:00:57;6.63;;;4.35;;
12112;SDS011;6120;52.250;8.478;2022-10-16T03:03:23;5.03;;;3.85;;
12112;SDS011;6120;52.250;8.478;2022-10-16T03:05:50;7.50;;;4.45;;
12112;SDS011;6120;52.250;8.478;2022-10-16T03:08:17;6.10;;;4.13;;
12112;SDS011;6120;52.250;8.478;2022-10-16T03:10:44;6.30;;;4.15;;
12112;SDS011;6120;52.250;8.478;2022-10-16T03:13:11;8.35;;;4.18;;
12112;SDS011;6120;52.250;8.478;2022-10-16T03:15:38;7.97;;;4.30;;
12112;SDS011;6120;52.250;8.478;2022-10-16T03:18:04;7.93;;;4.47;;
12112;SDS011;6120;52.250;8.478;2022-10-16T03:20:31;6.43;;;3.92;;
12112;SDS011;6120;52.250;8.478;2022-10-16T03:22:57;6.00;;;4.03;;
12112;SDS011;6120;52.250;8.478;2022-10-16T03:25:24;8.32;;;4.15;;
12112;SDS011;6120;52.250;8.478;2022-10-16T03:27:51;6.45;;;3.65;;
12112;SDS011;6120;52.250;8.478;2022-10-16T03:30:18;6.97;;;4.05;;
12112;SDS011;6120;52.250;8.478;2022-10-16T03:32:45;10.02;;;4.03;;
12112;SDS011;6120;52.250;8.478;2022-10-16T03:35:11;6.47;;;3.95;;
12112;SDS011;6120;52.250;8.478;2022-10-16T03:37:38;5.65;;;3.70;;
12112;SDS011;6120;52.250;8.478;2022-10-16T03:40:05;5.93;;;3.60;;
12112;SDS011;6120;52.250;8.478;2022-10-16T03:42:32;7.28;;;3.38;;
12112;SDS011;6120;52.250;8.478;2022-10-16T03:44:58;5.82;;;4.05;;
12112;SDS011;6120;52.250;8.478;2022-10-16T03:47:25;7.30;;;3.72;;
12112;SDS011;6120;52.250;8.478;2022-10-16T03:49:52;7.95;;;3.60;;
12112;SDS011;6120;52.250;8.478;2022-10-16T03:52:19;6.18;;;3.47;;
12112;SDS011;6120;52.250;8.478;2022-10-16T03:54:45;5.97;;;3.13;;
12112;SDS011;6120;52.250;8.478;2022-10-16T03:57:12;6.32;;;3.70;;
12112;SDS011;6120;52.250;8.478;2022-10-16T03:59:39;5.80;;;3.70;;
12112;SDS011;6120;52.250;8.478;2022-10-16T04:02:05;6.68;;;3.45;;
12112;SDS011;6120;52.250;8.478;2022-10-16T04:04:32;6.03;;;3.33;;
12112;SDS011;6120;52.250;8.478;2022-10-16T04:06:58;4.75;;;3.15;;
12112;SDS011;6120;52.250;8.478;2022-10-16T04:09:25;6.68;;;2.85;;
12112;SDS011;6120;52.250;8.478;2022-10-16T04:11:52;5.18;;;3.08;;
12112;SDS011;6120;52.250;8.478;2022-10-16T04:14:18;4.80;;;3.28;;
12112;SDS011;6120;52.250;8.478;2022-10-16T04:16:45;5.38;;;3.25;;
12112;SDS011;6120;52.250;8.478;2022-10-16T04:19:12;4.75;;;3.20;;
12112;SDS011;6120;52.250;8.478;2022-10-16T04:21:38;6.45;;;2.88;;
12112;SDS011;6120;52.250;8.478;2022-10-16T04:24:05;7.15;;;3.22;;
12112;SDS011;6120;52.250;8.478;2022-10-16T04:26:32;5.55;;;2.97;;
12112;SDS011;6120;52.250;8.478;2022-10-16T04:28:59;5.55;;;2.88;;
12112;SDS011;6120;52.250;8.478;2022-10-16T04:31:25;5.70;;;3.13;;
12112;SDS011;6120;52.250;8.478;2022-10-16T04:33:52;4.63;;;2.90;;
12112;SDS011;6120;52.250;8.478;2022-10-16T04:36:19;4.97;;;3.00;;
12112;SDS011;6120;52.250;8.478;2022-10-16T04:38:47;7.13;;;2.65;;
12112;SDS011;6120;52.250;8.478;2022-10-16T04:41:14;7.18;;;2.88;;
12112;SDS011;6120;52.250;8.478;2022-10-16T04:43:40;4.78;;;2.97;;
12112;SDS011;6120;52.250;8.478;2022-10-16T04:46:07;4.95;;;3.00;;
12112;SDS011;6120;52.250;8.478;2022-10-16T04:48:33;4.60;;;2.70;;
12112;SDS011;6120;52.250;8.478;2022-10-16T04:51:00;4.00;;;2.60;;
12112;SDS011;6120;52.250;8.478;2022-10-16T04:53:27;4.15;;;2.33;;
12112;SDS011;6120;52.250;8.478;2022-10-16T04:55:53;5.95;;;2.80;;
12112;SDS011;6120;52.250;8.478;2022-10-16T04:58:20;3.97;;;2.92;;
12112;SDS011;6120;52.250;8.478;2022-10-16T05:00:46;4.10;;;2.50;;
12112;SDS011;6120;52.250;8.478;2022-10-16T05:03:13;4.13;;;2.70;;
12112;SDS011;6120;52.250;8.478;2022-10-16T05:05:43;4.75;;;2.55;;
12112;SDS011;6120;52.250;8.478;2022-10-16T05:08:12;4.05;;;2.38;;
12112;SDS011;6120;52.250;8.478;2022-10-16T05:10:40;4.15;;;2.60;;
12112;SDS011;6120;52.250;8.478;2022-10-16T05:13:08;5.65;;;2.67;;
12112;SDS011;6120;52.250;8.478;2022-10-16T05:15:35;3.40;;;2.40;;
12112;SDS011;6120;52.250;8.478;2022-10-16T05:18:02;3.60;;;2.50;;
12112;SDS011;6120;52.250;8.478;2022-10-16T05:20:29;4.97;;;2.58;;
12112;SDS011;6120;52.250;8.478;2022-10-16T05:22:55;4.32;;;2.80;;
12112;SDS011;6120;52.250;8.478;2022-10-16T05:25:22;4.18;;;2.33;;
12112;SDS011;6120;52.250;8.478;2022-10-16T05:27:49;4.13;;;2.38;;
12112;SDS011;6120;52.250;8.478;2022-10-16T05:30:17;3.95;;;2.33;;
12112;SDS011;6120;52.250;8.478;2022-10-16T05:32:47;3.83;;;2.07;;
12112;SDS011;6120;52.250;8.478;2022-10-16T05:35:15;6.68;;;2.17;;
12112;SDS011;6120;52.250;8.478;2022-10-16T05:37:42;4.75;;;2.25;;
12112;SDS011;6120;52.250;8.478;2022-10-16T05:40:09;4.47;;;2.40;;
12112;SDS011;6120;52.250;8.478;2022-10-16T05:42:36;5.13;;;2.75;;
12112;SDS011;6120;52.250;8.478;2022-10-16T05:45:04;3.88;;;2.25;;
12112;SDS011;6120;52.250;8.478;2022-10-16T05:47:31;4.18;;;2.65;;
12112;SDS011;6120;52.250;8.478;2022-10-16T05:49:58;9.15;;;2.60;;
12112;SDS011;6120;52.250;8.478;2022-10-16T05:52:26;5.78;;;2.35;;
12112;SDS011;6120;52.250;8.478;2022-10-16T05:54:53;4.97;;;2.10;;
12112;SDS011;6120;52.250;8.478;2022-10-16T05:57:19;4.85;;;2.50;;
12112;SDS011;6120;52.250;8.478;2022-10-16T05:59:46;4.53;;;2.58;;
12112;SDS011;6120;52.250;8.478;2022-10-16T06:02:13;3.53;;;2.10;;
12112;SDS011;6120;52.250;8.478;2022-10-16T06:04:40;3.22;;;2.13;;
12112;SDS011;6120;52.250;8.478;2022-10-16T06:07:06;4.97;;;1.98;;
12112;SDS011;6120;52.250;8.478;2022-10-16T06:09:34;4.20;;;1.95;;
12112;SDS011;6120;52.250;8.478;2022-10-16T06:12:00;2.97;;;1.83;;
12112;SDS011;6120;52.250;8.478;2022-10-16T06:14:27;3.67;;;2.05;;
12112;SDS011;6120;52.250;8.478;2022-10-16T06:16:53;2.95;;;1.73;;
12112;SDS011;6120;52.250;8.478;2022-10-16T06:19:20;3.85;;;1.60;;
12112;SDS011;6120;52.250;8.478;2022-10-16T06:21:47;2.58;;;1.58;;
12112;SDS011;6120;52.250;8.478;2022-10-16T06:24:14;4.30;;;1.92;;
12112;SDS011;6120;52.250;8.478;2022-10-16T06:26:40;2.67;;;1.60;;
12112;SDS011;6120;52.250;8.478;2022-10-16T06:29:07;2.63;;;1.77;;
12112;SDS011;6120;52.250;8.478;2022-10-16T06:31:34;2.95;;;1.70;;
12112;SDS011;6120;52.250;8.478;2022-10-16T06:34:01;2.30;;;1.45;;
12112;SDS011;6120;52.250;8.478;2022-10-16T06:36:28;2.40;;;1.30;;
12112;SDS011;6120;52.250;8.478;2022-10-16T06:38:55;4.35;;;1.60;;
12112;SDS011;6120;52.250;8.478;2022-10-16T06:41:22;4.53;;;1.48;;
12112;SDS011;6120;52.250;8.478;2022-10-16T06:43:49;3.17;;;1.25;;
12112;SDS011;6120;52.250;8.478;2022-10-16T06:46:17;4.25;;;1.50;;
12112;SDS011;6120;52.250;8.478;2022-10-16T06:48:46;2.35;;;1.25;;
12112;SDS011;6120;52.250;8.478;2022-10-16T06:51:16;1.90;;;1.40;;
12112;SDS011;6120;52.250;8.478;2022-10-16T06:53:45;2.40;;;1.38;;
12112;SDS011;6120;52.250;8.478;2022-10-16T06:56:31;2.25;;;1.20;;
12112;SDS011;6120;52.250;8.478;2022-10-16T06:58:58;2.28;;;1.27;;
12112;SDS011;6120;52.250;8.478;2022-10-16T07:01:25;4.13;;;1.38;;
12112;SDS011;6120;52.250;8.478;2022-10-16T07:03:52;2.30;;;1.40;;
12112;SDS011;6120;52.250;8.478;2022-10-16T07:06:20;1.85;;;1.10;;
12112;SDS011;6120;52.250;8.478;2022-10-16T07:11:15;3.03;;;1.20;;
12112;SDS011;6120;52.250;8.478;2022-10-16T07:13:43;4.70;;;1.63;;
12112;SDS011;6120;52.250;8.478;2022-10-16T07:16:19;7.68;;;1.65;;
12112;SDS011;6120;52.250;8.478;2022-10-16T07:18:47;6.13;;;1.48;;
12112;SDS011;6120;52.250;8.478;2022-10-16T07:21:16;2.30;;;1.33;;
12112;SDS011;6120;52.250;8.478;2022-10-16T07:23:52;4.75;;;1.42;;
12112;SDS011;6120;52.250;8.478;2022-10-16T07:26:19;3.92;;;1.25;;
12112;SDS011;6120;52.250;8.478;2022-10-16T07:28:45;4.82;;;1.52;;
12112;SDS011;6120;52.250;8.478;2022-10-16T07:31:13;2.13;;;1.20;;
12112;SDS011;6120;52.250;8.478;2022-10-16T07:33:40;3.37;;;1.17;;
12112;SDS011;6120;52.250;8.478;2022-10-16T07:36:09;2.08;;;1.27;;
12112;SDS011;6120;52.250;8.478;2022-10-16T07:38:41;2.75;;;1.33;;
12112;SDS011;6120;52.250;8.478;2022-10-16T07:41:09;3.25;;;1.52;;
12112;SDS011;6120;52.250;8.478;2022-10-16T07:43:39;2.80;;;1.50;;
12112;SDS011;6120;52.250;8.478;2022-10-16T07:46:06;2.30;;;1.30;;
12112;SDS011;6120;52.250;8.478;2022-10-16T07:48:33;1.58;;;1.23;;
12112;SDS011;6120;52.250;8.478;2022-10-16T07:51:01;3.13;;;1.52;;
12112;SDS011;6120;52.250;8.478;2022-10-16T07:53:29;5.47;;;1.52;;
12112;SDS011;6120;52.250;8.478;2022-10-16T07:56:04;2.42;;;1.30;;
12112;SDS011;6120;52.250;8.478;2022-10-16T07:58:32;1.85;;;1.33;;
12112;SDS011;6120;52.250;8.478;2022-10-16T08:01:03;3.17;;;1.50;;
12112;SDS011;6120;52.250;8.478;2022-10-16T08:03:31;3.20;;;1.20;;
12112;SDS011;6120;52.250;8.478;2022-10-16T08:05:58;1.77;;;1.30;;
12112;SDS011;6120;52.250;8.478;2022-10-16T08:08:24;1.95;;;1.30;;
12112;SDS011;6120;52.250;8.478;2022-10-16T08:10:51;9.20;;;1.30;;
12112;SDS011;6120;52.250;8.478;2022-10-16T08:13:18;7.40;;;1.35;;
12112;SDS011;6120;52.250;8.478;2022-10-16T08:15:45;5.05;;;1.83;;
12112;SDS011;6120;52.250;8.478;2022-10-16T08:18:12;2.72;;;1.30;;
12112;SDS011;6120;52.250;8.478;2022-10-16T08:20:40;4.57;;;1.80;;
12112;SDS011;6120;52.250;8.478;2022-10-16T08:23:09;3.60;;;1.77;;
12112;SDS011;6120;52.250;8.478;2022-10-16T08:25:37;6.47;;;1.70;;
12112;SDS011;6120;52.250;8.478;2022-10-16T08:28:04;6.72;;;2.10;;
12112;SDS011;6120;52.250;8.478;2022-10-16T08:30:32;4.38;;;1.77;;
12112;SDS011;6120;52.250;8.478;2022-10-16T08:32:58;5.63;;;2.10;;
12112;SDS011;6120;52.250;8.478;2022-10-16T08:35:25;3.90;;;2.22;;
12112;SDS011;6120;52.250;8.478;2022-10-16T08:37:52;5.72;;;2.05;;
12112;SDS011;6120;52.250;8.478;2022-10-16T08:40:25;4.22;;;1.73;;
12112;SDS011;6120;52.250;8.478;2022-10-16T08:48:24;3.20;;;1.85;;
12112;SDS011;6120;52.250;8.478;2022-10-16T08:50:55;3.67;;;2.10;;
12112;SDS011;6120;52.250;8.478;2022-10-16T08:53:30;3.33;;;1.67;;
12112;SDS011;6120;52.250;8.478;2022-10-16T08:56:00;4.40;;;2.40;;
12112;SDS011;6120;52.250;8.478;2022-10-16T08:58:27;3.30;;;2.28;;
12112;SDS011;6120;52.250;8.478;2022-10-16T09:03:39;4.45;;;2.75;;
12112;SDS011;6120;52.250;8.478;2022-10-16T09:06:18;3.63;;;2.40;;
12112;SDS011;6120;52.250;8.478;2022-10-16T09:09:01;4.85;;;2.42;;
12112;SDS011;6120;52.250;8.478;2022-10-16T09:25:31;7.72;;;3.00;;
12112;SDS011;6120;52.250;8.478;2022-10-16T09:27:59;5.47;;;2.90;;
12112;SDS011;6120;52.250;8.478;2022-10-16T09:30:26;6.03;;;2.90;;
12112;SDS011;6120;52.250;8.478;2022-10-16T09:32:55;3.92;;;2.50;;
12112;SDS011;6120;52.250;8.478;2022-10-16T09:35:31;8.30;;;2.47;;
12112;SDS011;6120;52.250;8.478;2022-10-16T09:37:59;4.32;;;2.40;;
12112;SDS011;6120;52.250;8.478;2022-10-16T09:40:33;5.47;;;2.10;;
12112;SDS011;6120;52.250;8.478;2022-10-16T09:45:41;5.95;;;1.70;;
12112;SDS011;6120;52.250;8.478;2022-10-16T09:48:11;4.03;;;2.10;;
12112;SDS011;6120;52.250;8.478;2022-10-16T09:50:39;4.85;;;1.88;;
12112;SDS011;6120;52.250;8.478;2022-10-16T09:53:08;5.00;;;1.52;;
12112;SDS011;6120;52.250;8.478;2022-10-16T09:55:47;4.65;;;1.42;;
12112;SDS011;6120;52.250;8.478;2022-10-16T09:58:17;4.35;;;1.95;;
12112;SDS011;6120;52.250;8.478;2022-10-16T10:00:51;3.90;;;1.50;;
12112;SDS011;6120;52.250;8.478;2022-10-16T10:03:38;11.45;;;1.58;;
12112;SDS011;6120;52.250;8.478;2022-10-16T10:06:28;4.47;;;1.40;;
12112;SDS011;6120;52.250;8.478;2022-10-16T10:08:58;3.47;;;1.20;;
12112;SDS011;6120;52.250;8.478;2022-10-16T10:11:41;3.67;;;1.20;;
12112;SDS011;6120;52.250;8.478;2022-10-16T10:14:16;4.53;;;1.50;;
12112;SDS011;6120;52.250;8.478;2022-10-16T10:16:47;3.60;;;1.33;;
12112;SDS011;6120;52.250;8.478;2022-10-16T10:19:17;8.30;;;1.20;;
12112;SDS011;6120;52.250;8.478;2022-10-16T10:21:46;5.95;;;1.20;;
12112;SDS011;6120;52.250;8.478;2022-10-16T10:24:14;3.63;;;1.30;;
12112;SDS011;6120;52.250;8.478;2022-10-16T10:34:54;4.88;;;1.60;;
12112;SDS011;6120;52.250;8.478;2022-10-16T10:43:39;5.10;;;1.58;;
12112;SDS011;6120;52.250;8.478;2022-10-16T11:06:04;3.45;;;1.00;;
12112;SDS011;6120;52.250;8.478;2022-10-16T11:11:40;5.35;;;1.30;;
12112;SDS011;6120;52.250;8.478;2022-10-16T11:16:55;4.40;;;1.30;;
12112;SDS011;6120;52.250;8.478;2022-10-16T11:19:42;3.63;;;1.38;;
12112;SDS011;6120;52.250;8.478;2022-10-16T11:28:09;4.05;;;1.27;;
12112;SDS011;6120;52.250;8.478;2022-10-16T11:41:42;1.65;;;0.98;;
12112;SDS011;6120;52.250;8.478;2022-10-16T11:49:49;6.07;;;1.55;;
12112;SDS011;6120;52.250;8.478;2022-10-16T11:54:55;2.47;;;1.10;;
12112;SDS011;6120;52.250;8.478;2022-10-16T11:57:27;5.38;;;1.67;;
12112;SDS011;6120;52.250;8.478;2022-10-16T11:59:57;4.55;;;1.30;;
12112;SDS011;6120;52.250;8.478;2022-10-16T12:02:37;2.22;;;0.90;;
12112;SDS011;6120;52.250;8.478;2022-10-16T12:10:53;4.40;;;1.17;;
12112;SDS011;6120;52.250;8.478;2022-10-16T12:13:34;6.20;;;1.20;;
12112;SDS011;6120;52.250;8.478;2022-10-16T12:16:07;2.05;;;1.00;;
12112;SDS011;6120;52.250;8.478;2022-10-16T12:18:48;4.40;;;1.08;;
12112;SDS011;6120;52.250;8.478;2022-10-16T12:21:15;6.47;;;1.40;;
12112;SDS011;6120;52.250;8.478;2022-10-16T12:23:49;4.95;;;1.42;;
12112;SDS011;6120;52.250;8.478;2022-10-16T12:26:26;2.63;;;1.30;;
12112;SDS011;6120;52.250;8.478;2022-10-16T12:28:55;5.00;;;1.55;;
12112;SDS011;6120;52.250;8.478;2022-10-16T12:31:22;4.10;;;1.20;;
12112;SDS011;6120;52.250;8.478;2022-10-16T12:34:00;4.80;;;1.30;;
12112;SDS011;6120;52.250;8.478;2022-10-16T12:36:30;5.80;;;1.58;;
12112;SDS011;6120;52.250;8.478;2022-10-16T12:38:58;5.25;;;1.52;;
12112;SDS011;6120;52.250;8.478;2022-10-16T12:41:29;3.88;;;1.50;;
12112;SDS011;6120;52.250;8.478;2022-10-16T12:43:57;5.35;;;1.40;;
12112;SDS011;6120;52.250;8.478;2022-10-16T12:51:38;6.28;;;1.55;;
12112;SDS011;6120;52.250;8.478;2022-10-16T12:59:33;6.30;;;1.50;;
12112;SDS011;6120;52.250;8.478;2022-10-16T13:10:23;3.63;;;1.20;;
12112;SDS011;6120;52.250;8.478;2022-10-16T13:18:29;4.70;;;1.20;;
12112;SDS011;6120;52.250;8.478;2022-10-16T13:24:26;2.17;;;0.90;;
12112;SDS011;6120;52.250;8.478;2022-10-16T13:26:59;4.32;;;0.90;;
12112;SDS011;6120;52.250;8.478;2022-10-16T13:29:32;2.67;;;0.70;;
12112;SDS011;6120;52.250;8.478;2022-10-16T13:32:00;2.88;;;1.00;;
12112;SDS011;6120;52.250;8.478;2022-10-16T13:34:32;4.25;;;0.95;;
12112;SDS011;6120;52.250;8.478;2022-10-16T13:36:59;1.90;;;0.65;;
12112;SDS011;6120;52.250;8.478;2022-10-16T13:39:26;1.73;;;0.70;;
12112;SDS011;6120;52.250;8.478;2022-10-16T13:44:36;2.92;;;0.80;;
12112;SDS011;6120;52.250;8.478;2022-10-16T13:47:10;4.55;;;1.17;;
12112;SDS011;6120;52.250;8.478;2022-10-16T13:50:05;4.18;;;0.90;;
12112;SDS011;6120;52.250;8.478;2022-10-16T13:52:33;3.38;;;0.60;;
12112;SDS011;6120;52.250;8.478;2022-10-16T13:54:59;3.17;;;0.95;;
12112;SDS011;6120;52.250;8.478;2022-10-16T13:57:27;3.88;;;0.90;;
12112;SDS011;6120;52.250;8.478;2022-10-16T13:59:54;2.75;;;0.80;;
12112;SDS011;6120;52.250;8.478;2022-10-16T14:02:22;5.25;;;0.70;;
12112;SDS011;6120;52.250;8.478;2022-10-16T14:04:53;1.98;;;0.68;;
12112;SDS011;6120;52.250;8.478;2022-10-16T14:07:27;2.65;;;0.70;;
12112;SDS011;6120;52.250;8.478;2022-10-16T14:09:55;1.95;;;0.70;;
12112;SDS011;6120;52.250;8.478;2022-10-16T14:12:22;3.67;;;0.80;;
12112;SDS011;6120;52.250;8.478;2022-10-16T14:14:53;3.95;;;0.65;;
12112;SDS011;6120;52.250;8.478;2022-10-16T14:20:01;3.58;;;0.80;;
12112;SDS011;6120;52.250;8.478;2022-10-16T14:22:39;2.42;;;0.60;;
12112;SDS011;6120;52.250;8.478;2022-10-16T14:27:56;3.35;;;0.85;;
12112;SDS011;6120;52.250;8.478;2022-10-16T14:30:25;4.38;;;0.95;;
12112;SDS011;6120;52.250;8.478;2022-10-16T14:32:56;3.83;;;0.70;;
12112;SDS011;6120;52.250;8.478;2022-10-16T14:35:24;2.88;;;0.70;;
12112;SDS011;6120;52.250;8.478;2022-10-16T14:37:56;3.78;;;0.90;;
12112;SDS011;6120;52.250;8.478;2022-10-16T14:40:28;6.28;;;1.30;;
12112;SDS011;6120;52.250;8.478;2022-10-16T14:42:56;4.88;;;1.25;;
12112;SDS011;6120;52.250;8.478;2022-10-16T14:45:28;5.88;;;1.42;;
12112;SDS011;6120;52.250;8.478;2022-10-16T14:48:00;7.25;;;1.17;;
12112;SDS011;6120;52.250;8.478;2022-10-16T14:50:29;5.85;;;1.10;;
12112;SDS011;6120;52.250;8.478;2022-10-16T14:52:56;7.15;;;1.20;;
12112;SDS011;6120;52.250;8.478;2022-10-16T14:55:22;2.75;;;0.70;;
12112;SDS011;6120;52.250;8.478;2022-10-16T14:57:54;6.10;;;0.70;;
12112;SDS011;6120;52.250;8.478;2022-10-16T15:00:26;5.93;;;0.93;;
12112;SDS011;6120;52.250;8.478;2022-10-16T15:02:52;4.95;;;0.98;;
12112;SDS011;6120;52.250;8.478;2022-10-16T15:05:23;5.25;;;1.05;;
12112;SDS011;6120;52.250;8.478;2022-10-16T15:07:54;2.38;;;0.80;;
12112;SDS011;6120;52.250;8.478;2022-10-16T15:10:22;1.37;;;0.60;;
12112;SDS011;6120;52.250;8.478;2022-10-16T15:12:49;1.77;;;0.73;;
12112;SDS011;6120;52.250;8.478;2022-10-16T15:17:49;3.42;;;0.70;;
12112;SDS011;6120;52.250;8.478;2022-10-16T15:20:19;4.15;;;0.90;;
12112;SDS011;6120;52.250;8.478;2022-10-16T15:22:46;1.65;;;0.50;;
12112;SDS011;6120;52.250;8.478;2022-10-16T15:25:19;2.97;;;0.82;;
12112;SDS011;6120;52.250;8.478;2022-10-16T15:27:59;1.85;;;0.60;;
12112;SDS011;6120;52.250;8.478;2022-10-16T15:30:26;2.95;;;0.60;;
12112;SDS011;6120;52.250;8.478;2022-10-16T15:32:53;1.52;;;0.70;;
12112;SDS011;6120;52.250;8.478;2022-10-16T15:35:20;2.15;;;0.82;;
12112;SDS011;6120;52.250;8.478;2022-10-16T15:37:47;3.83;;;0.77;;
12112;SDS011;6120;52.250;8.478;2022-10-16T15:40:14;2.03;;;0.60;;
12112;SDS011;6120;52.250;8.478;2022-10-16T15:42:42;2.03;;;0.68;;
12112;SDS011;6120;52.250;8.478;2022-10-16T15:45:09;1.40;;;0.60;;
12112;SDS011;6120;52.250;8.478;2022-10-16T15:47:36;0.82;;;0.50;;
12112;SDS011;6120;52.250;8.478;2022-10-16T15:50:09;3.05;;;0.65;;
12112;SDS011;6120;52.250;8.478;2022-10-16T15:52:37;1.58;;;0.55;;
12112;SDS011;6120;52.250;8.478;2022-10-16T15:55:09;2.40;;;0.70;;
12112;SDS011;6120;52.250;8.478;2022-10-16T15:57:36;1.60;;;0.52;;
12112;SDS011;6120;52.250;8.478;2022-10-16T16:00:07;1.90;;;0.60;;
12112;SDS011;6120;52.250;8.478;2022-10-16T16:02:39;2.72;;;0.55;;
12112;SDS011;6120;52.250;8.478;2022-10-16T16:05:06;1.20;;;0.60;;
12112;SDS011;6120;52.250;8.478;2022-10-16T16:07:37;2.45;;;0.68;;
12112;SDS011;6120;52.250;8.478;2022-10-16T16:10:06;2.63;;;0.70;;
12112;SDS011;6120;52.250;8.478;2022-10-16T16:12:34;2.20;;;0.70;;
12112;SDS011;6120;52.250;8.478;2022-10-16T16:15:00;5.35;;;0.90;;
12112;SDS011;6120;52.250;8.478;2022-10-16T16:17:31;3.72;;;0.90;;
12112;SDS011;6120;52.250;8.478;2022-10-16T16:19:58;2.75;;;1.15;;
12112;SDS011;6120;52.250;8.478;2022-10-16T16:22:25;4.85;;;1.98;;
12112;SDS011;6120;52.250;8.478;2022-10-16T16:24:52;12.30;;;4.60;;
12112;SDS011;6120;52.250;8.478;2022-10-16T16:27:19;11.30;;;5.05;;
12112;SDS011;6120;52.250;8.478;2022-10-16T16:29:46;4.82;;;2.33;;
12112;SDS011;6120;52.250;8.478;2022-10-16T16:32:13;2.40;;;1.00;;
12112;SDS011;6120;52.250;8.478;2022-10-16T16:34:40;2.40;;;1.02;;
12112;SDS011;6120;52.250;8.478;2022-10-16T16:37:07;2.25;;;0.90;;
12112;SDS011;6120;52.250;8.478;2022-10-16T16:39:33;2.15;;;0.98;;
12112;SDS011;6120;52.250;8.478;2022-10-16T16:42:00;1.58;;;1.00;;
12112;SDS011;6120;52.250;8.478;2022-10-16T16:44:29;4.10;;;1.30;;
12112;SDS011;6120;52.250;8.478;2022-10-16T16:46:56;2.80;;;1.50;;
12112;SDS011;6120;52.250;8.478;2022-10-16T16:49:22;2.92;;;1.70;;
12112;SDS011;6120;52.250;8.478;2022-10-16T16:51:49;6.13;;;2.00;;
12112;SDS011;6120;52.250;8.478;2022-10-16T16:54:16;7.35;;;2.80;;
12112;SDS011;6120;52.250;8.478;2022-10-16T16:56:42;6.70;;;2.80;;
12112;SDS011;6120;52.250;8.478;2022-10-16T16:59:14;6.53;;;3.72;;
12112;SDS011;6120;52.250;8.478;2022-10-16T17:01:45;7.80;;;3.47;;
12112;SDS011;6120;52.250;8.478;2022-10-16T17:04:15;13.98;;;6.50;;
12112;SDS011;6120;52.250;8.478;2022-10-16T17:06:41;15.95;;;8.13;;
12112;SDS011;6120;52.250;8.478;2022-10-16T17:09:08;9.52;;;5.13;;
12112;SDS011;6120;52.250;8.478;2022-10-16T17:11:35;9.15;;;5.03;;
12112;SDS011;6120;52.250;8.478;2022-10-16T17:14:02;12.55;;;6.13;;
12112;SDS011;6120;52.250;8.478;2022-10-16T17:16:30;16.15;;;7.10;;
12112;SDS011;6120;52.250;8.478;2022-10-16T17:19:02;15.70;;;7.80;;
12112;SDS011;6120;52.250;8.478;2022-10-16T17:21:30;10.52;;;5.32;;
12112;SDS011;6120;52.250;8.478;2022-10-16T17:23:58;9.25;;;4.70;;
12112;SDS011;6120;52.250;8.478;2022-10-16T17:26:25;11.60;;;6.30;;
12112;SDS011;6120;52.250;8.478;2022-10-16T17:28:52;11.80;;;6.00;;
12112;SDS011;6120;52.250;8.478;2022-10-16T17:31:21;8.45;;;5.70;;
12112;SDS011;6120;52.250;8.478;2022-10-16T17:33:52;7.70;;;4.55;;
12112;SDS011;6120;52.250;8.478;2022-10-16T17:36:19;9.05;;;5.10;;
12112;SDS011;6120;52.250;8.478;2022-10-16T17:38:46;9.05;;;4.30;;
12112;SDS011;6120;52.250;8.478;2022-10-16T17:41:18;6.07;;;3.85;;
12112;SDS011;6120;52.250;8.478;2022-10-16T17:43:46;8.90;;;4.00;;
12112;SDS011;6120;52.250;8.478;2022-10-16T17:46:14;9.32;;;4.15;;